createdAt,value
2023-10-30T00:01:08.604Z,13.63
2023-10-30T00:03:35.056Z,13.65
2023-10-30T00:06:01.543Z,13.63
2023-10-30T00:08:27.885Z,13.51
2023-10-30T00:10:54.292Z,13.79
2023-10-30T00:13:20.667Z,13.44
2023-10-30T00:15:47.073Z,13.72
2023-10-30T00:18:13.471Z,13.67
2023-10-30T00:20:39.881Z,13.86
2023-10-30T00:23:06.216Z,13.88
2023-10-30T00:25:32.583Z,13.78
2023-10-30T00:28:01.192Z,13.72
2023-10-30T00:30:28.226Z,13.54
2023-10-30T00:32:54.677Z,13.93
2023-10-30T00:35:21.296Z,13.83
2023-10-30T00:37:47.665Z,13.91
2023-10-30T00:40:14.110Z,13.98
2023-10-30T00:42:40.587Z,13.56
2023-10-30T00:45:07.755Z,13.52
2023-10-30T00:47:39.334Z,13.61
2023-10-30T00:50:08.648Z,13.80
2023-10-30T00:52:35.012Z,13.75
2023-10-30T00:55:01.386Z,13.56
2023-10-30T00:57:27.945Z,13.79
2023-10-30T00:59:55.816Z,14.48
2023-10-30T01:02:22.321Z,13.64
2023-10-30T01:04:49.066Z,13.75
2023-10-30T01:07:15.598Z,13.96
2023-10-30T01:09:42.509Z,14.09
2023-10-30T01:12:09.144Z,13.94
2023-10-30T01:14:35.576Z,14.00
2023-10-30T01:17:01.997Z,13.95
2023-10-30T01:19:28.373Z,13.45
2023-10-30T01:21:54.768Z,13.73
2023-10-30T01:24:21.159Z,13.56
2023-10-30T01:26:47.519Z,13.89
2023-10-30T01:29:13.872Z,13.92
2023-10-30T01:31:41.168Z,13.54
2023-10-30T01:34:07.701Z,13.60
2023-10-30T01:36:34.240Z,14.01
2023-10-30T01:39:00.644Z,14.46
2023-10-30T01:41:27.611Z,14.14
2023-10-30T01:43:53.971Z,14.23
2023-10-30T01:46:20.345Z,13.88
2023-10-30T01:48:47.673Z,13.55
2023-10-30T01:51:15.138Z,13.80
2023-10-30T01:53:41.555Z,13.95
2023-10-30T01:56:08.177Z,13.96
2023-10-30T01:58:34.650Z,14.09
2023-10-30T02:01:01.422Z,13.73
2023-10-30T02:03:27.982Z,13.84
2023-10-30T02:05:55.117Z,14.06
2023-10-30T02:08:21.922Z,13.89
2023-10-30T02:10:48.375Z,14.13
2023-10-30T02:13:14.845Z,13.47
2023-10-30T02:15:41.319Z,13.71
2023-10-30T02:18:07.982Z,13.20
2023-10-30T02:20:35.417Z,13.35
2023-10-30T02:23:01.812Z,13.75
2023-10-30T02:25:28.193Z,13.73
2023-10-30T02:27:54.963Z,13.01
2023-10-30T02:30:21.548Z,13.37
2023-10-30T02:32:48.771Z,13.33
2023-10-30T02:35:17.870Z,13.08
2023-10-30T02:37:45.508Z,13.12
2023-10-30T02:40:13.018Z,13.06
2023-10-30T02:42:40.148Z,12.84
2023-10-30T02:45:07.286Z,13.06
2023-10-30T02:47:34.147Z,13.16
2023-10-30T02:50:01.971Z,13.25
2023-10-30T02:52:29.802Z,12.84
2023-10-30T02:54:56.225Z,13.10
2023-10-30T02:57:22.688Z,12.94
2023-10-30T02:59:49.177Z,12.93
2023-10-30T03:02:15.787Z,13.02
2023-10-30T03:04:42.203Z,12.98
2023-10-30T03:07:08.699Z,13.15
2023-10-30T03:09:36.537Z,12.88
2023-10-30T03:12:03.184Z,13.07
2023-10-30T03:14:29.539Z,13.15
2023-10-30T03:16:55.903Z,12.95
2023-10-30T03:19:22.245Z,13.15
2023-10-30T03:21:48.609Z,12.84
2023-10-30T03:24:14.995Z,12.89
2023-10-30T03:26:41.378Z,13.17
2023-10-30T03:29:07.912Z,13.07
2023-10-30T03:31:34.307Z,13.22
2023-10-30T03:34:00.746Z,13.27
2023-10-30T03:36:27.556Z,12.89
2023-10-30T03:38:53.990Z,12.88
2023-10-30T03:41:20.670Z,12.77
2023-10-30T03:43:47.432Z,13.04
2023-10-30T03:46:13.886Z,13.01
2023-10-30T03:48:40.333Z,13.08
2023-10-30T03:51:07.017Z,13.12
2023-10-30T03:53:33.639Z,12.69
2023-10-30T03:56:05.388Z,12.84
2023-10-30T03:58:31.849Z,12.79
2023-10-30T04:01:05.351Z,13.06
2023-10-30T04:03:31.796Z,13.07
2023-10-30T04:06:04.967Z,12.76
2023-10-30T04:08:31.961Z,12.79
2023-10-30T04:10:58.583Z,13.02
2023-10-30T04:13:24.979Z,12.72
2023-10-30T04:15:51.364Z,13.04
2023-10-30T04:18:17.973Z,13.02
2023-10-30T04:20:44.902Z,12.91
2023-10-30T04:23:11.325Z,12.93
2023-10-30T04:25:37.672Z,13.01
2023-10-30T04:28:04.256Z,12.55
2023-10-30T04:30:31.044Z,13.00
2023-10-30T04:32:58.480Z,13.00
2023-10-30T04:35:24.917Z,12.86
2023-10-30T04:37:51.852Z,12.90
2023-10-30T04:40:18.744Z,13.07
2023-10-30T04:42:45.347Z,13.11
2023-10-30T04:45:11.794Z,13.05
2023-10-30T04:47:38.334Z,13.06
2023-10-30T04:50:05.161Z,13.25
2023-10-30T04:52:31.515Z,13.26
2023-10-30T04:54:57.870Z,13.19
2023-10-30T04:57:24.241Z,12.92
2023-10-30T04:59:50.779Z,13.10
2023-10-30T05:02:17.308Z,12.81
2023-10-30T05:04:43.661Z,13.18
2023-10-30T05:07:10.103Z,12.95
2023-10-30T05:09:37.598Z,13.10
2023-10-30T05:12:04.360Z,12.99
2023-10-30T05:14:30.760Z,13.21
2023-10-30T05:16:57.262Z,12.93
2023-10-30T05:19:23.588Z,13.09
2023-10-30T05:21:49.969Z,12.92
2023-10-30T05:24:16.382Z,13.02
2023-10-30T05:26:42.801Z,12.99
2023-10-30T05:29:09.850Z,13.12
2023-10-30T05:31:36.316Z,13.10
2023-10-30T05:34:02.813Z,12.86
2023-10-30T05:36:29.367Z,12.99
2023-10-30T05:38:55.735Z,13.12
2023-10-30T05:41:22.059Z,12.80
2023-10-30T05:43:48.401Z,13.10
2023-10-30T05:46:14.805Z,13.12
2023-10-30T05:48:41.435Z,12.95
2023-10-30T05:51:07.820Z,13.12
2023-10-30T05:53:34.174Z,13.08
2023-10-30T05:56:00.501Z,12.82
2023-10-30T05:58:26.839Z,12.82
2023-10-30T06:00:53.780Z,12.92
2023-10-30T06:03:20.257Z,13.29
2023-10-30T06:05:46.625Z,13.17
2023-10-30T06:08:13.111Z,13.04
2023-10-30T06:10:39.948Z,13.36
2023-10-30T06:13:10.100Z,13.17
2023-10-30T06:15:36.517Z,13.26
2023-10-30T06:18:04.602Z,13.13
2023-10-30T06:20:31.044Z,13.69
2023-10-30T06:22:58.519Z,13.57
2023-10-30T06:25:25.514Z,13.17
2023-10-30T06:27:51.918Z,13.40
2023-10-30T06:30:18.636Z,13.42
2023-10-30T06:32:45.385Z,13.48
2023-10-30T06:35:11.900Z,13.20
2023-10-30T06:37:39.120Z,13.24
2023-10-30T06:40:06.755Z,13.40
2023-10-30T06:42:33.117Z,13.45
2023-10-30T06:45:00.487Z,13.27
2023-10-30T06:47:28.230Z,13.20
2023-10-30T06:49:54.823Z,13.09
2023-10-30T06:52:21.155Z,13.27
2023-10-30T06:54:47.744Z,13.28
2023-10-30T06:57:14.252Z,13.47
2023-10-30T06:59:40.592Z,13.22
2023-10-30T07:02:07.042Z,13.38
2023-10-30T07:04:33.653Z,13.51
2023-10-30T07:07:00.048Z,13.18
2023-10-30T07:09:26.389Z,13.42
2023-10-30T07:11:52.755Z,13.52
2023-10-30T07:14:19.168Z,13.46
2023-10-30T07:16:57.303Z,13.26
2023-10-30T07:19:29.946Z,13.74
2023-10-30T07:21:56.320Z,14.20
2023-10-30T07:24:22.786Z,13.61
2023-10-30T07:26:49.223Z,13.62
2023-10-30T07:29:15.582Z,13.67
2023-10-30T07:31:42.053Z,13.59
2023-10-30T07:34:08.409Z,13.85
2023-10-30T07:36:34.807Z,13.39
2023-10-30T07:39:01.277Z,13.48
2023-10-30T07:41:27.725Z,13.51
2023-10-30T07:43:54.112Z,13.55
2023-10-30T07:46:20.811Z,13.86
2023-10-30T07:48:47.295Z,13.71
2023-10-30T07:51:14.566Z,13.85
2023-10-30T07:53:41.086Z,13.89
2023-10-30T07:56:07.474Z,14.00
2023-10-30T07:58:33.825Z,14.06
2023-10-30T08:01:00.472Z,14.04
2023-10-30T08:03:27.061Z,14.10
2023-10-30T08:05:53.473Z,13.88
2023-10-30T08:08:19.863Z,14.15
2023-10-30T08:10:47.075Z,14.04
2023-10-30T08:13:13.701Z,14.20
2023-10-30T08:15:40.154Z,14.59
2023-10-30T08:18:06.869Z,14.20
2023-10-30T08:20:33.272Z,13.56
2023-10-30T08:22:59.655Z,14.06
2023-10-30T08:25:26.986Z,13.86
2023-10-30T08:27:53.573Z,14.10
2023-10-30T08:30:20.090Z,14.47
2023-10-30T08:32:47.768Z,14.34
2023-10-30T08:35:14.349Z,14.24
2023-10-30T08:37:40.715Z,14.36
2023-10-30T08:40:09.453Z,14.79
2023-10-30T08:42:35.908Z,14.67
2023-10-30T08:45:02.515Z,14.68
2023-10-30T08:47:29.081Z,14.62
2023-10-30T08:49:55.832Z,14.80
2023-10-30T08:52:22.250Z,14.68
2023-10-30T08:54:48.708Z,14.66
2023-10-30T08:57:18.003Z,14.47
2023-10-30T08:59:44.492Z,14.45
2023-10-30T09:02:10.970Z,14.71
2023-10-30T09:04:37.979Z,14.60
2023-10-30T09:07:04.743Z,14.66
2023-10-30T09:09:31.262Z,14.64
2023-10-30T09:11:57.633Z,14.60
2023-10-30T09:14:26.259Z,14.63
2023-10-30T09:16:54.059Z,15.16
2023-10-30T09:19:20.815Z,14.90
2023-10-30T09:21:47.280Z,14.95
2023-10-30T09:24:13.738Z,15.33
2023-10-30T09:26:40.068Z,15.11
2023-10-30T09:29:06.423Z,14.91
2023-10-30T09:31:34.206Z,15.22
2023-10-30T09:34:01.315Z,15.53
2023-10-30T09:36:28.261Z,15.83
2023-10-30T09:38:55.039Z,15.45
2023-10-30T09:41:21.737Z,15.57
2023-10-30T09:43:49.407Z,15.61
2023-10-30T09:46:17.574Z,15.67
2023-10-30T09:48:49.626Z,15.74
2023-10-30T09:51:16.220Z,15.95
2023-10-30T09:53:43.190Z,15.71
2023-10-30T09:56:09.740Z,15.49
2023-10-30T09:58:39.628Z,16.14
2023-10-30T10:01:06.456Z,16.22
2023-10-30T10:03:33.123Z,16.05
2023-10-30T10:06:01.069Z,16.21
2023-10-30T10:08:27.903Z,16.38
2023-10-30T10:10:58.567Z,15.90
2023-10-30T10:13:27.124Z,16.22
2023-10-30T10:15:53.721Z,15.92
2023-10-30T10:18:28.005Z,16.03
2023-10-30T10:20:57.569Z,16.35
2023-10-30T10:23:25.078Z,15.90
2023-10-30T10:25:53.851Z,16.27
2023-10-30T10:28:20.195Z,16.02
2023-10-30T10:30:46.726Z,16.24
2023-10-30T10:33:13.172Z,16.50
2023-10-30T10:35:41.687Z,16.22
2023-10-30T10:38:09.987Z,16.08
2023-10-30T10:40:38.253Z,16.32
2023-10-30T10:43:05.956Z,16.07
2023-10-30T10:45:33.202Z,16.40
2023-10-30T10:47:59.602Z,16.90
2023-10-30T10:50:26.025Z,16.52
2023-10-30T10:52:54.452Z,16.57
2023-10-30T10:55:25.121Z,16.72
2023-10-30T10:58:13.779Z,16.62
2023-10-30T11:00:47.242Z,16.70
2023-10-30T11:03:13.938Z,16.87
2023-10-30T11:05:40.619Z,16.42
2023-10-30T11:08:18.051Z,16.77
2023-10-30T11:10:50.186Z,17.17
2023-10-30T11:13:27.926Z,16.79
2023-10-30T11:16:18.213Z,16.66
2023-10-30T11:18:44.599Z,16.93
2023-10-30T11:21:14.654Z,16.79
2023-10-30T11:23:48.404Z,16.72
2023-10-30T11:26:59.485Z,16.49
2023-10-30T11:30:04.490Z,17.07
2023-10-30T11:32:33.297Z,17.75
2023-10-30T11:35:00.339Z,16.90
2023-10-30T11:37:28.882Z,17.20
2023-10-30T11:39:55.567Z,17.09
2023-10-30T11:42:30.518Z,16.95
2023-10-30T11:45:25.864Z,17.42
2023-10-30T11:48:06.825Z,17.80
2023-10-30T11:50:38.134Z,17.47
2023-10-30T11:53:09.606Z,17.30
2023-10-30T11:55:40.089Z,18.17
2023-10-30T11:58:08.386Z,17.34
2023-10-30T12:00:34.811Z,16.72
2023-10-30T12:03:01.384Z,17.29
2023-10-30T12:05:30.670Z,17.84
2023-10-30T12:07:57.112Z,17.69
2023-10-30T12:10:23.749Z,17.66
2023-10-30T12:12:50.136Z,17.96
2023-10-30T12:15:17.005Z,17.34
2023-10-30T12:17:43.431Z,17.76
2023-10-30T12:20:10.725Z,17.94
2023-10-30T12:22:42.826Z,17.61
2023-10-30T12:25:10.473Z,17.81
2023-10-30T12:27:37.022Z,17.78
2023-10-30T12:30:17.613Z,17.27
2023-10-30T12:32:53.344Z,17.40
2023-10-30T12:35:19.784Z,17.42
2023-10-30T12:37:46.148Z,17.54
2023-10-30T12:40:16.680Z,17.47
2023-10-30T12:42:45.142Z,16.84
2023-10-30T12:45:21.720Z,17.24
2023-10-30T12:47:51.012Z,17.45
2023-10-30T12:50:18.648Z,17.17
2023-10-30T12:52:45.267Z,17.76
2023-10-30T12:55:12.525Z,18.01
2023-10-30T12:57:39.191Z,17.19
2023-10-30T13:00:08.091Z,17.29
2023-10-30T13:02:34.747Z,16.94
2023-10-30T13:05:01.296Z,17.46
2023-10-30T13:07:27.706Z,17.23
2023-10-30T13:09:54.087Z,17.41
2023-10-30T13:12:21.026Z,17.89
2023-10-30T13:14:47.610Z,16.59
2023-10-30T13:17:14.238Z,16.84
2023-10-30T13:19:40.815Z,17.25
2023-10-30T13:22:07.332Z,17.16
2023-10-30T13:24:33.715Z,17.15
2023-10-30T13:27:00.220Z,17.41
2023-10-30T13:29:28.622Z,17.73
2023-10-30T13:31:56.226Z,17.29
2023-10-30T13:34:22.911Z,17.10
2023-10-30T13:36:49.336Z,17.60
2023-10-30T13:39:16.717Z,17.58
2023-10-30T13:41:45.216Z,17.52
2023-10-30T13:44:11.576Z,17.44
2023-10-30T13:46:38.014Z,16.93
2023-10-30T13:49:04.457Z,17.29
2023-10-30T13:51:32.006Z,16.75
2023-10-30T13:53:58.406Z,17.07
2023-10-30T13:56:24.828Z,16.86
2023-10-30T13:58:51.391Z,17.08
2023-10-30T14:01:21.469Z,17.03
2023-10-30T14:03:48.479Z,16.93
2023-10-30T14:06:15.376Z,16.91
2023-10-30T14:08:41.809Z,16.82
2023-10-30T14:11:08.210Z,16.49
2023-10-30T14:13:34.558Z,17.29
2023-10-30T14:16:01.804Z,17.14
2023-10-30T14:18:28.386Z,16.73
2023-10-30T14:20:56.630Z,17.13
2023-10-30T14:23:23.062Z,16.92
2023-10-30T14:25:49.423Z,17.14
2023-10-30T14:28:15.948Z,16.94
2023-10-30T14:30:42.341Z,17.16
2023-10-30T14:33:12.084Z,16.99
2023-10-30T14:35:39.077Z,16.86
2023-10-30T14:38:05.509Z,16.78
2023-10-30T14:40:32.905Z,16.68
2023-10-30T14:42:59.330Z,16.50
2023-10-30T14:45:25.762Z,16.48
2023-10-30T14:47:52.118Z,16.40
2023-10-30T14:50:18.942Z,17.04
2023-10-30T14:52:45.269Z,16.72
2023-10-30T14:55:11.642Z,16.63
2023-10-30T14:57:38.165Z,16.90
2023-10-30T15:00:05.093Z,16.89
2023-10-30T15:02:32.655Z,16.56
2023-10-30T15:05:01.437Z,16.84
2023-10-30T15:07:27.909Z,16.87
2023-10-30T15:09:54.291Z,16.63
2023-10-30T15:12:20.675Z,16.70
2023-10-30T15:14:47.299Z,16.50
2023-10-30T15:17:14.578Z,16.46
2023-10-30T15:19:41.015Z,16.60
2023-10-30T15:22:07.475Z,16.25
2023-10-30T15:24:34.001Z,16.53
2023-10-30T15:27:00.536Z,16.44
2023-10-30T15:29:26.867Z,16.30
2023-10-30T15:31:53.240Z,16.40
2023-10-30T15:34:19.667Z,16.47
2023-10-30T15:36:46.195Z,16.62
2023-10-30T15:39:12.597Z,16.38
2023-10-30T15:41:39.011Z,16.39
2023-10-30T15:44:05.667Z,16.17
2023-10-30T15:46:34.720Z,16.05
2023-10-30T15:49:08.686Z,16.00
2023-10-30T15:51:35.402Z,15.95
2023-10-30T15:59:04.950Z,15.99
2023-10-30T16:01:31.344Z,16.13
2023-10-30T16:03:58.061Z,15.98
2023-10-30T16:06:25.660Z,16.16
2023-10-30T16:08:52.203Z,16.14
2023-10-30T16:13:47.977Z,15.86
2023-10-30T16:16:14.589Z,15.75
2023-10-30T16:19:15.301Z,15.88
2023-10-30T16:21:28.050Z,16.08
2023-10-30T16:23:54.888Z,16.21
2023-10-30T16:26:21.261Z,16.41
2023-10-30T16:28:47.786Z,16.63
2023-10-30T16:31:14.272Z,16.72
2023-10-30T16:33:40.618Z,17.00
2023-10-30T16:36:07.414Z,17.25
2023-10-30T16:38:33.782Z,17.12
2023-10-30T16:41:00.371Z,17.45
2023-10-30T16:43:26.732Z,17.48
2023-10-30T16:45:53.098Z,17.42
2023-10-30T16:48:20.158Z,17.64
2023-10-30T16:50:46.527Z,17.64
2023-10-30T16:53:14.527Z,17.61
2023-10-30T16:55:40.891Z,17.78
2023-10-30T16:58:07.394Z,17.50
2023-10-30T17:00:33.888Z,17.59
2023-10-30T17:03:01.458Z,17.63
2023-10-30T17:05:27.854Z,17.73
2023-10-30T17:07:54.736Z,17.71
2023-10-30T17:10:21.273Z,17.74
2023-10-30T17:12:47.782Z,17.47
2023-10-30T17:15:14.242Z,17.63
2023-10-30T17:17:40.852Z,17.71
2023-10-30T17:20:08.020Z,17.64
2023-10-30T17:22:34.653Z,17.43
2023-10-30T17:25:01.885Z,17.35
2023-10-30T17:27:28.694Z,17.56
2023-10-30T17:29:55.050Z,17.38
2023-10-30T17:32:22.462Z,17.06
2023-10-30T17:34:49.157Z,16.99
2023-10-30T17:37:16.243Z,17.22
2023-10-30T17:39:42.638Z,17.25
2023-10-30T17:42:09.186Z,17.19
2023-10-30T17:44:36.177Z,17.05
2023-10-30T17:47:02.704Z,17.33
2023-10-30T17:49:29.080Z,17.35
2023-10-30T17:51:55.465Z,17.37
2023-10-30T17:54:22.080Z,17.11
2023-10-30T17:56:48.480Z,17.37
2023-10-30T17:59:15.086Z,17.49
2023-10-30T18:01:41.492Z,17.55
2023-10-30T18:04:08.019Z,17.55
2023-10-30T18:06:37.005Z,17.54
2023-10-30T18:09:03.494Z,17.68
2023-10-30T18:11:29.892Z,17.79
2023-10-30T18:13:56.251Z,17.79
2023-10-30T18:16:22.715Z,18.02
2023-10-30T18:18:49.125Z,18.28
2023-10-30T18:21:15.601Z,18.01
2023-10-30T18:23:43.331Z,18.33
2023-10-30T18:26:09.848Z,18.13
2023-10-30T18:28:36.332Z,18.07
2023-10-30T18:31:03.134Z,19.16
2023-10-30T18:33:31.693Z,14.64
2023-10-30T18:35:58.360Z,14.43
2023-10-30T18:38:24.765Z,14.40
2023-10-30T18:40:51.716Z,14.16
2023-10-30T18:43:20.767Z,14.30
2023-10-30T18:45:47.146Z,14.41
2023-10-30T18:48:13.573Z,14.48
2023-10-30T18:50:40.090Z,14.42
2023-10-30T18:53:06.479Z,14.36
2023-10-30T18:55:32.832Z,14.17
2023-10-30T18:57:59.572Z,14.16
2023-10-30T19:00:25.909Z,14.33
2023-10-30T19:02:52.347Z,14.26
2023-10-30T19:05:18.828Z,14.23
2023-10-30T19:07:47.798Z,14.33
2023-10-30T19:10:14.302Z,14.26
2023-10-30T19:12:40.797Z,14.40
2023-10-30T19:15:07.565Z,14.23
2023-10-30T19:17:33.947Z,14.44
2023-10-30T19:20:00.675Z,14.45
2023-10-30T19:22:29.039Z,14.43
2023-10-30T19:24:55.513Z,14.33
2023-10-30T19:27:21.849Z,14.33
2023-10-30T19:29:48.221Z,14.20
2023-10-30T19:32:14.589Z,14.29
2023-10-30T19:34:41.009Z,14.18
2023-10-30T19:37:07.392Z,14.18
2023-10-30T19:39:33.794Z,14.29
2023-10-30T19:42:00.192Z,14.30
2023-10-30T19:44:26.566Z,14.45
2023-10-30T19:46:52.989Z,14.40
2023-10-30T19:49:19.420Z,14.46
2023-10-30T19:51:52.546Z,14.36
2023-10-30T19:54:24.836Z,14.35
2023-10-30T19:56:51.222Z,14.28
2023-10-30T19:59:17.607Z,14.27
2023-10-30T20:01:44.082Z,14.27
2023-10-30T20:04:10.527Z,14.23
2023-10-30T20:06:36.873Z,14.30
2023-10-30T20:09:03.462Z,14.34
2023-10-30T20:11:29.860Z,14.36
2023-10-30T20:13:57.896Z,14.42
2023-10-30T20:16:24.982Z,14.31
2023-10-30T20:18:51.419Z,14.31
2023-10-30T20:21:17.876Z,14.29
2023-10-30T20:23:44.252Z,14.19
2023-10-30T20:26:10.650Z,14.19
2023-10-30T20:28:37.612Z,14.30
2023-10-30T20:31:04.094Z,14.24
2023-10-30T20:33:30.588Z,14.18
2023-10-30T20:35:56.945Z,14.29
2023-10-30T20:38:23.854Z,14.21
2023-10-30T20:40:50.229Z,14.14
2023-10-30T20:43:18.704Z,14.15
2023-10-30T20:45:46.152Z,14.26
2023-10-30T20:48:14.727Z,14.15
2023-10-30T20:50:41.122Z,14.07
2023-10-30T20:53:07.704Z,13.76
2023-10-30T20:55:34.113Z,13.73
2023-10-30T20:58:00.559Z,13.87
2023-10-30T21:00:27.223Z,13.97
2023-10-30T21:02:53.801Z,14.04
2023-10-30T21:05:21.138Z,13.97
2023-10-30T21:07:48.575Z,14.02
2023-10-30T21:10:15.089Z,13.90
2023-10-30T21:12:41.469Z,13.87
2023-10-30T21:15:08.914Z,13.99
2023-10-30T21:17:36.375Z,14.05
2023-10-30T21:20:06.037Z,14.07
2023-10-30T21:22:33.930Z,13.90
2023-10-30T21:25:00.606Z,14.02
2023-10-30T21:27:27.079Z,14.06
2023-10-30T21:29:53.533Z,13.95
2023-10-30T21:32:19.912Z,14.00
2023-10-30T21:34:46.333Z,13.92
2023-10-30T21:37:12.801Z,13.95
2023-10-30T21:39:39.544Z,14.15
2023-10-30T21:42:06.409Z,14.13
2023-10-30T21:44:32.768Z,14.15
2023-10-30T21:46:59.160Z,14.01
2023-10-30T21:49:25.596Z,13.94
2023-10-30T21:51:52.321Z,13.93
2023-10-30T21:54:18.760Z,14.13
2023-10-30T21:56:45.124Z,13.98
2023-10-30T21:59:11.511Z,13.92
2023-10-30T22:01:37.896Z,13.98
2023-10-30T22:04:04.775Z,13.88
2023-10-30T22:06:31.214Z,14.06
2023-10-30T22:08:57.584Z,14.05
2023-10-30T22:11:24.066Z,13.79
2023-10-30T22:13:50.777Z,13.95
2023-10-30T22:16:17.284Z,14.09
2023-10-30T22:18:43.689Z,14.19
2023-10-30T22:21:10.051Z,14.06
2023-10-30T22:23:36.762Z,14.15
2023-10-30T22:26:03.325Z,13.95
2023-10-30T22:28:29.812Z,14.06
2023-10-30T22:30:56.253Z,13.92
2023-10-30T22:33:22.672Z,13.98
2023-10-30T22:35:49.060Z,13.77
2023-10-30T22:38:15.412Z,13.45
2023-10-30T22:40:41.941Z,13.31
2023-10-30T22:43:08.307Z,13.26
2023-10-30T22:45:34.657Z,13.48
2023-10-30T22:48:01.155Z,13.32
2023-10-30T22:50:27.533Z,13.27
2023-10-30T22:52:54.129Z,13.53
2023-10-30T22:55:20.772Z,13.63
2023-10-30T22:57:47.716Z,13.50
2023-10-30T23:00:14.984Z,13.47
2023-10-30T23:02:41.815Z,13.72
2023-10-30T23:05:08.639Z,13.65
2023-10-30T23:07:35.739Z,13.39
2023-10-30T23:10:03.398Z,13.43
2023-10-30T23:12:30.481Z,13.50
2023-10-30T23:14:56.942Z,13.61
2023-10-30T23:17:24.615Z,13.83
2023-10-30T23:19:51.315Z,13.87
2023-10-30T23:22:17.695Z,13.87
2023-10-30T23:24:44.106Z,13.90
2023-10-30T23:27:10.489Z,14.02
2023-10-30T23:29:36.954Z,13.84
2023-10-30T23:32:03.594Z,14.02
2023-10-30T23:34:29.961Z,14.05
2023-10-30T23:36:56.606Z,14.24
2023-10-30T23:39:22.982Z,14.33
2023-10-30T23:41:49.351Z,14.22
2023-10-30T23:44:15.715Z,14.20
2023-10-30T23:46:42.257Z,14.10
2023-10-30T23:49:08.680Z,14.09
2023-10-30T23:51:35.301Z,13.83
2023-10-30T23:54:01.746Z,14.23
2023-10-30T23:56:28.243Z,14.29
2023-10-30T23:58:54.656Z,14.41
